createdAt,value
2019-04-14T00:02:09.949Z,73.45
2019-04-14T00:04:33.349Z,74.00
2019-04-14T00:06:37.661Z,74.36
2019-04-14T00:08:41.479Z,74.12
2019-04-14T00:10:44.252Z,74.28
2019-04-14T00:12:47.050Z,74.00
2019-04-14T00:14:49.511Z,73.99
2019-04-14T00:16:51.745Z,73.62
2019-04-14T00:18:53.857Z,73.56
2019-04-14T00:20:56.237Z,73.72
2019-04-14T00:22:59.706Z,73.42
2019-04-14T00:25:02.459Z,72.94
2019-04-14T00:27:04.834Z,72.68
2019-04-14T00:29:06.774Z,72.89
2019-04-14T00:31:09.109Z,72.63
2019-04-14T00:33:12.809Z,72.59
2019-04-14T00:35:23.290Z,72.64
2019-04-14T00:37:35.964Z,72.97
2019-04-14T00:39:40.671Z,72.93
2019-04-14T00:41:55.581Z,72.96
2019-04-14T00:44:07.761Z,72.73
2019-04-14T00:46:16.862Z,72.58
2019-04-14T00:48:23.068Z,72.90
2019-04-14T00:50:25.911Z,73.07
2019-04-14T00:52:29.690Z,73.06
2019-04-14T00:54:32.544Z,72.53
2019-04-14T00:56:34.909Z,72.06
2019-04-14T00:58:36.892Z,72.05
2019-04-14T01:00:38.997Z,72.43
2019-04-14T01:02:41.136Z,72.38
2019-04-14T01:04:44.694Z,72.13
2019-04-14T01:06:47.372Z,72.19
2019-04-14T01:08:49.287Z,72.20
2019-04-14T01:10:52.015Z,72.03
2019-04-14T01:12:54.108Z,72.25
2019-04-14T01:14:56.705Z,72.24
2019-04-14T01:17:00.447Z,72.06
2019-04-14T01:19:02.685Z,72.17
2019-04-14T01:21:06.624Z,72.36
2019-04-14T01:23:10.622Z,72.31
2019-04-14T01:25:13.454Z,72.38
2019-04-14T01:27:16.774Z,72.61
2019-04-14T01:29:19.537Z,72.80
2019-04-14T01:31:23.088Z,72.96
2019-04-14T01:33:27.178Z,73.06
2019-04-14T01:35:31.454Z,72.94
2019-04-14T01:37:33.939Z,72.59
2019-04-14T01:39:37.197Z,73.06
2019-04-14T01:41:41.015Z,72.99
2019-04-14T01:43:43.796Z,73.35
2019-04-14T01:45:59.509Z,73.51
2019-04-14T01:47:51.067Z,73.44
2019-04-14T01:49:53.284Z,73.31
2019-04-14T01:52:14.661Z,73.93
2019-04-14T01:54:43.077Z,73.92
2019-04-14T01:57:04.590Z,73.80
2019-04-14T01:59:08.629Z,73.68
2019-04-14T02:01:18.112Z,73.41
2019-04-14T02:03:21.759Z,73.18
2019-04-14T02:05:24.120Z,73.35
2019-04-14T02:07:26.093Z,73.47
2019-04-14T02:09:29.464Z,73.30
2019-04-14T02:11:33.439Z,73.23
2019-04-14T02:13:36.102Z,73.21
2019-04-14T02:15:39.589Z,73.31
2019-04-14T02:17:42.057Z,73.17
2019-04-14T02:19:45.879Z,73.35
2019-04-14T02:21:48.256Z,73.32
2019-04-14T02:23:50.299Z,73.32
2019-04-14T02:25:53.609Z,73.43
2019-04-14T02:27:55.905Z,73.34
2019-04-14T02:29:58.327Z,73.25
2019-04-14T02:32:33.750Z,73.23
2019-04-14T02:40:43.794Z,73.20
2019-04-14T02:42:46.815Z,73.29
2019-04-14T02:44:53.322Z,73.32
2019-04-14T02:46:59.711Z,73.32
2019-04-14T02:48:59.165Z,73.12
2019-04-14T02:51:04.229Z,73.26
2019-04-14T02:53:12.292Z,73.40
2019-04-14T02:55:09.084Z,73.82
2019-04-14T02:57:16.755Z,73.57
2019-04-14T02:59:36.338Z,73.21
2019-04-14T03:01:38.697Z,73.51
2019-04-14T03:05:37.671Z,73.75
2019-04-14T03:07:40.145Z,73.81
2019-04-14T03:09:45.410Z,73.75
2019-04-14T03:11:47.586Z,73.81
2019-04-14T03:15:56.746Z,73.94
2019-04-14T03:20:43.352Z,73.99
2019-04-14T03:25:09.740Z,74.42
2019-04-14T03:27:30.429Z,74.06
2019-04-14T03:29:40.818Z,74.42
2019-04-14T03:32:04.620Z,74.36
2019-04-14T03:37:54.084Z,74.55
2019-04-14T03:40:00.706Z,74.50
2019-04-14T03:42:01.583Z,74.68
2019-04-14T03:44:01.638Z,75.09
2019-04-14T03:50:21.549Z,75.13
2019-04-14T03:52:29.835Z,74.70
2019-04-14T03:54:20.476Z,74.68
2019-04-14T03:57:01.842Z,74.43
2019-04-14T03:59:04.282Z,74.64
2019-04-14T04:01:06.380Z,74.42
2019-04-14T04:03:08.553Z,74.56
2019-04-14T04:05:10.765Z,74.50
2019-04-14T04:07:12.521Z,74.55
2019-04-14T04:09:15.008Z,74.54
2019-04-14T04:11:17.372Z,74.71
2019-04-14T04:13:19.402Z,74.93
2019-04-14T04:15:21.605Z,75.39
2019-04-14T04:17:43.047Z,75.61
2019-04-14T04:19:59.936Z,75.52
2019-04-14T04:22:21.777Z,75.42
2019-04-14T04:25:02.973Z,75.46
2019-04-14T04:27:24.431Z,75.72
2019-04-14T04:29:37.637Z,75.92
2019-04-14T04:31:48.734Z,76.17
2019-04-14T04:34:11.838Z,76.52
2019-04-14T04:36:37.772Z,76.30
2019-04-14T04:38:51.069Z,75.85
2019-04-14T04:40:53.234Z,75.74
2019-04-14T04:42:55.291Z,75.91
2019-04-14T04:44:57.515Z,75.68
2019-04-14T04:46:59.262Z,75.61
2019-04-14T04:49:09.802Z,75.76
2019-04-14T04:51:05.556Z,75.89
2019-04-14T04:53:07.553Z,76.00
2019-04-14T04:55:09.913Z,75.78
2019-04-14T04:57:13.346Z,75.82
2019-04-14T04:59:16.984Z,75.96
2019-04-14T05:01:19.246Z,75.92
2019-04-14T05:03:21.518Z,75.96
2019-04-14T05:05:42.559Z,76.05
2019-04-14T05:07:44.879Z,76.27
2019-04-14T05:10:19.534Z,76.48
2019-04-14T05:12:43.988Z,76.63
2019-04-14T05:14:52.275Z,76.43
2019-04-14T05:16:54.997Z,76.11
2019-04-14T05:19:10.108Z,76.20
2019-04-14T05:21:01.785Z,75.77
2019-04-14T05:23:04.243Z,76.05
2019-04-14T05:25:07.820Z,75.81
2019-04-14T05:27:10.168Z,75.77
2019-04-14T05:29:12.455Z,76.12
2019-04-14T05:31:14.345Z,76.30
2019-04-14T05:33:16.494Z,76.02
2019-04-14T05:35:18.770Z,75.81
2019-04-14T05:37:21.082Z,75.51
2019-04-14T05:39:22.762Z,75.94
2019-04-14T05:41:26.457Z,75.74
2019-04-14T05:43:38.642Z,75.34
2019-04-14T05:45:32.884Z,75.25
2019-04-14T05:47:35.337Z,75.54
2019-04-14T05:49:42.495Z,75.57
2019-04-14T05:51:41.605Z,75.40
2019-04-14T05:53:43.792Z,75.12
2019-04-14T05:55:46.085Z,73.34
2019-04-14T05:57:48.204Z,70.77
2019-04-14T05:59:50.688Z,69.57
2019-04-14T06:01:52.871Z,69.15
2019-04-14T06:03:56.014Z,69.01
2019-04-14T06:05:58.401Z,67.78
2019-04-14T06:08:00.524Z,67.20
2019-04-14T06:10:03.684Z,66.47
2019-04-14T06:12:05.937Z,65.21
2019-04-14T06:14:08.767Z,64.87
2019-04-14T06:16:10.935Z,65.19
2019-04-14T06:18:13.093Z,65.70
2019-04-14T06:20:15.837Z,66.14
2019-04-14T06:22:17.882Z,65.96
2019-04-14T06:24:20.338Z,66.25
2019-04-14T06:26:22.371Z,66.22
2019-04-14T06:28:24.472Z,66.12
2019-04-14T06:30:45.177Z,65.57
2019-04-14T06:32:48.342Z,66.09
2019-04-14T06:35:28.753Z,66.93
2019-04-14T06:37:37.943Z,68.30
2019-04-14T06:39:42.881Z,68.37
2019-04-14T06:41:45.073Z,69.43
2019-04-14T06:43:49.026Z,69.97
2019-04-14T06:45:51.522Z,69.34
2019-04-14T06:47:53.569Z,69.16
2019-04-14T06:49:55.849Z,69.53
2019-04-14T06:51:57.978Z,69.72
2019-04-14T06:54:00.039Z,69.48
2019-04-14T06:56:02.338Z,69.15
2019-04-14T06:58:04.489Z,68.52
2019-04-14T07:00:07.071Z,67.40
2019-04-14T07:02:09.347Z,66.39
2019-04-14T07:04:11.635Z,66.35
2019-04-14T07:06:13.880Z,66.00
2019-04-14T07:08:16.257Z,65.32
2019-04-14T07:10:18.400Z,64.34
2019-04-14T07:12:20.477Z,64.69
2019-04-14T07:14:22.840Z,65.23
2019-04-14T07:16:24.951Z,64.47
2019-04-14T07:18:27.343Z,66.39
2019-04-14T07:20:29.226Z,66.04
2019-04-14T07:22:31.342Z,66.40
2019-04-14T07:24:33.485Z,65.15
2019-04-14T07:26:36.045Z,64.03
2019-04-14T07:28:38.285Z,65.32
2019-04-14T07:30:58.941Z,66.53
2019-04-14T07:33:33.007Z,67.23
2019-04-14T07:36:07.020Z,66.74
2019-04-14T07:38:17.233Z,66.99
2019-04-14T07:40:32.471Z,66.48
2019-04-14T07:42:51.497Z,67.32
2019-04-14T07:45:08.081Z,68.08
2019-04-14T07:47:17.209Z,66.99
2019-04-14T07:49:41.972Z,67.71
2019-04-14T07:51:50.501Z,68.03
2019-04-14T07:54:05.812Z,67.89
2019-04-14T07:56:27.465Z,68.75
2019-04-14T07:58:36.995Z,68.59
2019-04-14T08:00:43.131Z,67.99
2019-04-14T08:02:55.427Z,67.49
2019-04-14T08:05:01.343Z,66.79
2019-04-14T08:07:03.653Z,65.67
2019-04-14T08:09:06.286Z,66.06
2019-04-14T08:11:08.664Z,65.78
2019-04-14T08:13:10.927Z,64.72
2019-04-14T08:15:13.021Z,65.46
2019-04-14T08:17:15.094Z,63.91
2019-04-14T08:19:17.553Z,63.33
2019-04-14T08:21:19.597Z,62.90
2019-04-14T08:23:21.643Z,63.59
2019-04-14T08:25:24.078Z,63.34
2019-04-14T08:27:25.775Z,62.41
2019-04-14T08:29:27.782Z,61.59
2019-04-14T08:32:44.083Z,62.13
2019-04-14T08:34:46.122Z,61.62
2019-04-14T08:36:48.059Z,60.38
2019-04-14T08:38:50.352Z,59.03
2019-04-14T08:40:52.294Z,59.26
2019-04-14T08:43:12.791Z,59.01
2019-04-14T08:45:24.382Z,58.24
2019-04-14T08:47:45.935Z,59.11
2019-04-14T08:49:57.252Z,57.73
2019-04-14T08:52:09.460Z,56.73
2019-04-14T08:54:31.038Z,56.84
2019-04-14T08:56:41.675Z,58.14
2019-04-14T08:59:12.411Z,56.22
2019-04-14T09:01:39.986Z,56.11
2019-04-14T09:04:04.621Z,55.28
2019-04-14T09:06:10.630Z,54.25
2019-04-14T09:08:32.373Z,53.76
2019-04-14T09:10:37.751Z,53.46
2019-04-14T09:12:40.960Z,53.17
2019-04-14T09:14:55.957Z,53.49
2019-04-14T09:16:46.790Z,54.68
2019-04-14T09:18:48.812Z,56.47
2019-04-14T09:20:52.422Z,56.92
2019-04-14T09:22:54.588Z,57.72
2019-04-14T09:24:56.825Z,57.63
2019-04-14T09:26:59.284Z,56.96
2019-04-14T09:29:00.995Z,57.55
2019-04-14T09:31:03.096Z,57.54
2019-04-14T09:33:05.110Z,58.29
2019-04-14T09:35:07.061Z,57.73
2019-04-14T09:37:12.075Z,56.17
2019-04-14T09:39:13.304Z,55.34
2019-04-14T09:41:15.309Z,55.92
2019-04-14T09:43:17.829Z,56.56
2019-04-14T09:45:19.877Z,56.05
2019-04-14T09:47:22.138Z,55.70
2019-04-14T09:49:24.433Z,55.20
2019-04-14T09:51:26.459Z,53.72
2019-04-14T09:53:28.415Z,52.27
2019-04-14T09:55:30.612Z,52.99
2019-04-14T09:57:32.688Z,52.07
2019-04-14T09:59:34.770Z,52.87
2019-04-14T10:01:37.019Z,51.85
2019-04-14T10:03:38.999Z,53.51
2019-04-14T10:05:41.066Z,54.34
2019-04-14T10:07:43.080Z,53.04
2019-04-14T10:09:45.163Z,52.90
2019-04-14T10:11:48.823Z,53.49
2019-04-14T10:13:51.419Z,53.55
2019-04-14T10:15:53.014Z,52.78
2019-04-14T10:17:54.973Z,52.43
2019-04-14T10:19:57.304Z,49.63
2019-04-14T10:21:59.283Z,49.69
2019-04-14T10:24:01.408Z,49.48
2019-04-14T10:26:03.929Z,48.49
2019-04-14T10:28:08.283Z,49.39
2019-04-14T10:30:10.177Z,48.29
2019-04-14T10:32:12.443Z,46.87
2019-04-14T10:34:14.419Z,46.55
2019-04-14T10:36:16.673Z,47.07
2019-04-14T10:38:18.926Z,47.58
2019-04-14T10:40:21.147Z,47.81
2019-04-14T10:42:23.204Z,47.08
2019-04-14T10:44:25.927Z,45.96
2019-04-14T10:46:27.877Z,47.43
2019-04-14T10:48:29.850Z,47.94
2019-04-14T10:50:32.017Z,46.63
2019-04-14T10:52:33.992Z,46.20
2019-04-14T10:54:35.946Z,46.23
2019-04-14T10:56:38.207Z,44.58
2019-04-14T10:58:40.202Z,44.78
2019-04-14T11:00:42.151Z,44.27
2019-04-14T11:02:44.482Z,44.32
2019-04-14T11:04:46.464Z,44.41
2019-04-14T11:06:58.605Z,43.29
2019-04-14T11:09:00.718Z,44.01
2019-04-14T11:11:02.695Z,43.82
2019-04-14T11:13:04.720Z,43.60
2019-04-14T11:15:06.848Z,42.79
2019-04-14T11:17:09.083Z,44.03
2019-04-14T11:19:11.089Z,44.73
2019-04-14T11:21:13.397Z,43.75
2019-04-14T11:23:15.398Z,43.61
2019-04-14T11:25:17.499Z,44.96
2019-04-14T11:27:19.790Z,45.24
2019-04-14T11:29:21.792Z,44.85
2019-04-14T11:31:42.637Z,45.44
2019-04-14T11:34:00.439Z,44.61
2019-04-14T11:36:37.214Z,43.33
2019-04-14T11:41:51.839Z,42.43
2019-04-14T11:43:53.856Z,43.42
2019-04-14T11:45:56.121Z,43.62
2019-04-14T11:47:58.191Z,42.91
2019-04-14T11:50:00.178Z,42.46
2019-04-14T11:52:02.346Z,42.82
2019-04-14T11:54:04.436Z,42.25
2019-04-14T11:56:06.586Z,42.06
2019-04-14T11:58:08.846Z,42.98
2019-04-14T12:00:30.441Z,43.01
2019-04-14T12:02:56.434Z,42.85
2019-04-14T12:05:23.838Z,42.29
2019-04-14T12:07:54.711Z,43.21
2019-04-14T12:10:08.969Z,42.70
2019-04-14T12:12:11.088Z,43.60
2019-04-14T12:14:13.144Z,43.56
2019-04-14T12:16:15.151Z,42.85
2019-04-14T12:18:17.483Z,43.07
2019-04-14T12:20:22.607Z,42.72
2019-04-14T12:22:24.777Z,42.79
2019-04-14T12:24:27.056Z,41.98
2019-04-14T12:26:29.028Z,41.84
2019-04-14T12:28:31.762Z,41.21
2019-04-14T12:30:34.148Z,41.37
2019-04-14T12:32:36.139Z,42.22
2019-04-14T12:34:38.179Z,41.58
2019-04-14T12:36:40.348Z,42.13
2019-04-14T12:38:42.335Z,41.76
2019-04-14T12:40:44.452Z,42.02
2019-04-14T12:43:06.393Z,42.50
2019-04-14T12:45:27.965Z,42.20
2019-04-14T12:47:40.357Z,42.50
2019-04-14T12:49:44.620Z,41.53
2019-04-14T12:52:04.766Z,41.20
2019-04-14T12:54:06.912Z,41.23
2019-04-14T12:56:09.133Z,41.54
2019-04-14T12:58:12.216Z,42.29
2019-04-14T13:00:35.095Z,42.06
2019-04-14T13:02:39.693Z,41.00
2019-04-14T13:04:41.694Z,39.97
2019-04-14T13:06:43.839Z,40.26
2019-04-14T13:08:45.907Z,40.07
2019-04-14T13:10:50.863Z,40.11
2019-04-14T13:12:52.860Z,39.48
2019-04-14T13:14:55.236Z,39.68
2019-04-14T13:16:57.222Z,39.37
2019-04-14T13:18:59.192Z,39.02
2019-04-14T13:21:01.338Z,39.03
2019-04-14T13:23:03.477Z,38.72
2019-04-14T13:25:05.579Z,38.81
2019-04-14T13:27:07.810Z,39.01
2019-04-14T13:29:09.844Z,38.40
2019-04-14T13:31:11.814Z,38.67
2019-04-14T13:33:14.105Z,38.49
2019-04-14T13:35:16.211Z,38.03
2019-04-14T13:37:18.189Z,38.91
2019-04-14T13:39:20.387Z,37.57
2019-04-14T13:41:22.550Z,37.32
2019-04-14T13:43:24.534Z,37.01
2019-04-14T13:45:26.894Z,37.01
2019-04-14T13:47:28.917Z,37.31
2019-04-14T13:49:30.897Z,37.08
2019-04-14T13:51:33.176Z,37.22
2019-04-14T13:53:35.136Z,36.95
2019-04-14T13:55:37.107Z,36.72
2019-04-14T13:57:39.463Z,36.15
2019-04-14T13:59:41.804Z,36.49
2019-04-14T14:01:43.801Z,36.34
2019-04-14T14:03:45.960Z,35.87
2019-04-14T14:05:48.058Z,36.09
2019-04-14T14:07:50.078Z,36.73
2019-04-14T14:09:52.246Z,37.21
2019-04-14T14:12:20.098Z,37.27
2019-04-14T14:14:41.813Z,37.13
2019-04-14T14:17:02.558Z,37.09
2019-04-14T14:19:28.740Z,36.51
2019-04-14T14:22:05.698Z,36.11
2019-04-14T14:24:26.274Z,36.31
2019-04-14T14:26:29.124Z,35.91
2019-04-14T14:28:31.489Z,35.67
2019-04-14T14:30:33.465Z,35.49
2019-04-14T14:32:35.775Z,35.53
2019-04-14T14:34:38.086Z,35.99
2019-04-14T14:36:40.080Z,35.25
2019-04-14T14:38:42.210Z,35.65
2019-04-14T14:40:44.484Z,35.76
2019-04-14T14:42:46.475Z,34.93
2019-04-14T14:44:57.407Z,34.98
2019-04-14T14:47:09.212Z,34.69
2019-04-14T14:49:19.731Z,35.29
2019-04-14T14:51:30.471Z,35.52
2019-04-14T14:53:32.693Z,35.43
2019-04-14T14:55:34.677Z,35.88
2019-04-14T14:57:36.676Z,35.81
2019-04-14T14:59:38.987Z,35.85
2019-04-14T15:01:40.959Z,36.05
2019-04-14T15:03:42.965Z,35.69
2019-04-14T15:05:45.373Z,35.48
2019-04-14T15:07:47.357Z,35.51
2019-04-14T15:09:49.365Z,35.46
2019-04-14T15:11:51.759Z,35.34
2019-04-14T15:13:53.477Z,35.98
2019-04-14T15:15:55.607Z,36.52
2019-04-14T15:17:57.739Z,36.98
2019-04-14T15:19:59.868Z,36.95
2019-04-14T15:22:02.104Z,36.34
2019-04-14T15:24:04.539Z,36.43
2019-04-14T15:26:06.587Z,36.13
2019-04-14T15:28:08.654Z,36.53
2019-04-14T15:30:15.679Z,36.21
2019-04-14T15:32:17.722Z,36.62
2019-04-14T15:34:19.692Z,36.66
2019-04-14T15:36:21.920Z,36.68
2019-04-14T15:38:24.109Z,37.01
2019-04-14T15:40:26.906Z,37.70
2019-04-14T15:42:29.033Z,37.84
2019-04-14T15:44:31.156Z,37.84
2019-04-14T15:46:33.154Z,37.09
2019-04-14T15:48:35.220Z,37.34
2019-04-14T15:50:37.215Z,36.86
2019-04-14T15:52:39.475Z,36.57
2019-04-14T15:54:42.225Z,37.18
2019-04-14T15:57:03.794Z,36.11
2019-04-14T15:59:11.519Z,36.39
2019-04-14T16:01:35.818Z,36.37
2019-04-14T16:04:09.099Z,36.05
2019-04-14T16:06:30.179Z,37.01
2019-04-14T16:08:43.029Z,37.39
2019-04-14T16:10:51.979Z,37.39
2019-04-14T16:13:12.029Z,37.63
2019-04-14T16:15:37.558Z,37.49
2019-04-14T16:17:58.584Z,37.13
2019-04-14T16:20:05.426Z,36.31
2019-04-14T16:22:07.499Z,36.33
2019-04-14T16:24:09.658Z,36.82
2019-04-14T16:26:25.538Z,36.63
2019-04-14T16:28:49.880Z,36.49
2019-04-14T16:31:26.914Z,36.83
2019-04-14T16:33:48.520Z,37.13
2019-04-14T16:35:51.075Z,37.69
2019-04-14T16:37:53.280Z,37.49
2019-04-14T16:39:55.252Z,37.26
2019-04-14T16:41:57.219Z,37.55
2019-04-14T16:43:59.356Z,37.14
2019-04-14T16:46:01.496Z,37.40
2019-04-14T16:48:03.533Z,37.03
2019-04-14T16:50:05.849Z,37.61
2019-04-14T16:52:26.112Z,38.07
2019-04-14T16:54:53.783Z,37.49
2019-04-14T16:57:14.809Z,37.55
2019-04-14T16:59:16.847Z,37.38
2019-04-14T17:01:27.092Z,37.13
2019-04-14T17:03:29.400Z,37.45
2019-04-14T17:05:31.418Z,37.02
2019-04-14T17:07:35.194Z,37.26
2019-04-14T17:09:37.527Z,37.60
2019-04-14T17:11:39.551Z,38.06
2019-04-14T17:13:44.625Z,37.21
2019-04-14T17:16:05.107Z,37.64
2019-04-14T17:18:16.181Z,37.77
2019-04-14T17:20:43.865Z,37.49
2019-04-14T17:22:58.935Z,37.82
2019-04-14T17:25:21.182Z,37.95
2019-04-14T17:27:32.837Z,38.30
2019-04-14T17:29:54.949Z,38.67
2019-04-14T17:32:12.873Z,38.87
2019-04-14T17:34:35.093Z,38.82
2019-04-14T17:36:53.174Z,38.93
2019-04-14T17:39:14.771Z,38.85
2019-04-14T17:41:27.705Z,38.82
2019-04-14T17:43:32.938Z,39.02
2019-04-14T17:45:54.675Z,38.86
2019-04-14T17:48:08.654Z,38.62
2019-04-14T17:50:41.021Z,38.42
2019-04-14T17:52:47.325Z,38.89
2019-04-14T17:55:03.107Z,38.81
2019-04-14T17:57:24.858Z,38.86
2019-04-14T17:59:45.128Z,39.52
2019-04-14T18:02:09.787Z,39.40
2019-04-14T18:04:19.493Z,39.83
2019-04-14T18:06:53.395Z,39.97
2019-04-14T18:09:23.923Z,40.38
2019-04-14T18:11:52.640Z,40.44
2019-04-14T18:14:14.333Z,40.48
2019-04-14T18:16:33.586Z,40.75
2019-04-14T18:19:10.377Z,41.53
2019-04-14T18:21:12.341Z,41.96
2019-04-14T18:23:14.396Z,41.94
2019-04-14T18:25:16.647Z,42.19
2019-04-14T18:27:18.741Z,42.45
2019-04-14T18:29:27.227Z,42.67
2019-04-14T18:31:36.660Z,42.70
2019-04-14T18:33:44.951Z,42.99
2019-04-14T18:35:57.416Z,42.80
2019-04-14T18:38:26.574Z,43.25
2019-04-14T18:40:48.178Z,43.22
2019-04-14T18:43:24.917Z,43.52
2019-04-14T18:45:39.526Z,43.56
2019-04-14T18:48:03.675Z,43.67
2019-04-14T18:50:28.274Z,43.79
2019-04-14T18:52:39.578Z,43.45
2019-04-14T18:54:56.361Z,43.78
2019-04-14T18:57:14.866Z,43.73
2019-04-14T18:59:40.277Z,43.95
2019-04-14T19:01:43.917Z,44.03
2019-04-14T19:03:46.136Z,44.08
2019-04-14T19:05:48.590Z,44.13
2019-04-14T19:07:50.516Z,44.33
2019-04-14T19:09:52.653Z,44.29
2019-04-14T19:12:14.655Z,44.38
2019-04-14T19:14:21.362Z,44.46
2019-04-14T19:16:39.699Z,45.74
2019-04-14T19:18:49.388Z,45.46
2019-04-14T19:20:55.724Z,46.00
2019-04-14T19:22:57.717Z,45.80
2019-04-14T19:25:07.923Z,45.88
2019-04-14T19:27:03.995Z,45.52
2019-04-14T19:29:06.098Z,45.47
2019-04-14T19:31:08.610Z,45.16
2019-04-14T19:33:10.673Z,45.64
2019-04-14T19:35:12.697Z,45.42
2019-04-14T19:37:15.006Z,45.53
2019-04-14T19:39:17.571Z,45.42
2019-04-14T19:41:19.564Z,45.43
2019-04-14T19:43:24.102Z,45.46
2019-04-14T19:45:25.912Z,45.49
2019-04-14T19:47:28.413Z,45.64
2019-04-14T19:49:30.673Z,46.09
2019-04-14T19:51:32.686Z,46.15
2019-04-14T19:53:36.060Z,46.23
2019-04-14T19:55:38.382Z,46.25
2019-04-14T19:57:41.262Z,46.52
2019-04-14T19:59:43.234Z,46.71
2019-04-14T20:01:45.384Z,46.96
2019-04-14T20:03:47.650Z,47.09
2019-04-14T20:05:51.409Z,47.34
2019-04-14T20:07:54.037Z,47.53
2019-04-14T20:09:56.357Z,47.76
2019-04-14T20:11:58.635Z,47.90
2019-04-14T20:14:01.029Z,48.38
2019-04-14T20:16:27.393Z,48.59
2019-04-14T20:18:48.940Z,48.91
2019-04-14T20:21:13.061Z,49.04
2019-04-14T20:23:37.675Z,49.35
2019-04-14T20:25:58.153Z,49.51
2019-04-14T20:28:11.719Z,49.85
2019-04-14T20:30:20.663Z,49.98
2019-04-14T20:32:25.490Z,50.14
2019-04-14T20:34:27.689Z,50.38
2019-04-14T20:36:29.679Z,50.30
2019-04-14T20:38:31.646Z,50.46
2019-04-14T20:40:34.781Z,50.62
2019-04-14T20:42:36.901Z,50.86
2019-04-14T20:44:38.852Z,51.05
2019-04-14T20:46:41.087Z,51.36
2019-04-14T20:48:45.019Z,51.28
2019-04-14T20:50:46.996Z,51.30
2019-04-14T20:52:49.566Z,51.44
2019-04-14T20:54:51.541Z,51.58
2019-04-14T20:58:06.367Z,51.70
2019-04-14T21:00:08.447Z,51.58
2019-04-14T21:02:36.021Z,51.67
2019-04-14T21:05:16.322Z,51.81
2019-04-14T21:07:39.858Z,51.93
2019-04-14T21:09:53.950Z,52.17
2019-04-14T21:12:07.540Z,52.47
2019-04-14T21:14:19.653Z,52.35
2019-04-14T21:16:35.532Z,52.51
2019-04-14T21:18:57.474Z,52.41
2019-04-14T21:21:19.080Z,52.57
2019-04-14T21:23:39.518Z,52.60
2019-04-14T21:26:01.181Z,52.95
2019-04-14T21:28:11.851Z,53.09
2019-04-14T21:30:25.481Z,53.43
2019-04-14T21:32:31.676Z,53.26
2019-04-14T21:35:05.540Z,53.53
2019-04-14T21:37:24.539Z,53.77
2019-04-14T21:39:58.544Z,53.58
2019-04-14T21:42:00.515Z,53.65
2019-04-14T21:44:02.473Z,53.83
2019-04-14T21:46:04.624Z,54.03
2019-04-14T21:48:06.602Z,54.61
2019-04-14T21:50:08.619Z,54.61
2019-04-14T21:52:33.867Z,54.71
2019-04-14T21:54:35.938Z,54.86
2019-04-14T21:56:37.948Z,54.93
2019-04-14T21:58:54.803Z,55.08
2019-04-14T22:01:48.974Z,55.31
2019-04-14T22:04:20.016Z,55.37
2019-04-14T22:06:31.844Z,55.83
2019-04-14T22:08:37.551Z,55.97
2019-04-14T22:10:46.472Z,55.98
2019-04-14T22:12:48.645Z,56.04
2019-04-14T22:14:50.754Z,56.14
2019-04-14T22:16:52.836Z,56.39
2019-04-14T22:18:57.892Z,56.44
2019-04-14T22:20:59.879Z,56.70
2019-04-14T22:23:03.768Z,56.91
2019-04-14T22:25:05.828Z,56.96
2019-04-14T22:27:07.881Z,57.11
2019-04-14T22:29:10.154Z,57.47
2019-04-14T22:31:12.181Z,57.46
2019-04-14T22:33:14.222Z,57.51
2019-04-14T22:35:16.742Z,57.71
2019-04-14T22:37:18.694Z,57.95
2019-04-14T22:39:20.730Z,58.10
2019-04-14T22:41:22.926Z,58.03
2019-04-14T22:43:25.083Z,58.32
2019-04-14T22:45:27.043Z,58.35
2019-04-14T22:47:29.221Z,58.48
2019-04-14T22:49:31.464Z,58.66
2019-04-14T22:51:33.482Z,58.93
2019-04-14T22:53:35.508Z,58.93
2019-04-14T22:55:37.593Z,59.50
2019-04-14T22:57:39.598Z,59.32
2019-04-14T22:59:41.793Z,59.58
2019-04-14T23:01:46.873Z,59.57
2019-04-14T23:04:08.572Z,59.83
2019-04-14T23:06:36.157Z,59.97
2019-04-14T23:09:06.688Z,60.27
2019-04-14T23:11:14.181Z,60.36
2019-04-14T23:13:28.158Z,60.47
2019-04-14T23:15:38.543Z,60.47
2019-04-14T23:17:44.771Z,60.82
2019-04-14T23:19:52.384Z,60.81
2019-04-14T23:22:02.603Z,61.04
2019-04-14T23:24:13.289Z,61.05
2019-04-14T23:26:15.889Z,61.27
2019-04-14T23:28:17.895Z,61.34
2019-04-14T23:30:21.186Z,61.27
2019-04-14T23:32:23.262Z,61.33
2019-04-14T23:34:25.351Z,61.32
2019-04-14T23:36:27.339Z,61.58
2019-04-14T23:38:29.371Z,61.99
2019-04-14T23:40:31.339Z,61.83
2019-04-14T23:42:33.366Z,61.82
2019-04-14T23:44:35.657Z,61.98
2019-04-14T23:46:37.639Z,62.02
2019-04-14T23:48:39.619Z,61.98
2019-04-14T23:50:41.732Z,62.13
2019-04-14T23:52:43.755Z,62.51
2019-04-14T23:54:45.771Z,62.56
2019-04-14T23:56:47.817Z,62.58
2019-04-14T23:58:49.800Z,62.60
